Archival Weather

Rochelle Muni/Koritz Fld

Rochelle, Illinois (KRPJ)

Report from: Sunday, February 5, 2023 4:35 AM CST
Current time: Tuesday, February 27, 2024 3:44 AM CST

Current weather – Weather history – Daily summaries
Weather forecast

Temperature-0.5°C (31.1°F)
Wind chill-5.3°C (22.4°F)
Dew point-1.7°C (28.9°F)
Winds 9 kts (4.6 m/s, 10.4 mph) South-Southwest (210°)
Visibility10 mi. (16.1 km)
Clouds Sky clear
Altimeter29.85 in.Hg (1011 mB)
Relative humidity92 %
Density altitude-1,731 ft. (-528 m)
Remarks Fully automated report
Automated weather observing station with precipitation discriminator
Lightning detection system not operating
Flight conditions Visual Meteorological Conditions
Raw dataKRPJ 051035Z AUTO 21009KT 10SM CLR 00/M02 A2985 RMK AO2 T10051017 TSNO
An error has occurred. This application may no longer respond until reloaded. Reload 🗙